Creighton, MO (64739)

6:36 PM CST on December 26, 2014 (GMT -0600)
Holden Missouri | Change Station
CLOSE
Current Station
Personal Weather Station
Location: Holden, MO
Elevation: 900 ft
Nearby Weather Stations

Elev 900 ft 38.70 °N, 93.99 °W | Updated 1 second ago

Overcast
Overcast
50.2 °F
Feels Like 50.2 °F
N
1.0
Wind Variable Wind from SSW
Gusts 1.0 mph

Today
High -- | Low -- °F
--% Chance of Precip.
Yesterday
High -- | Low -- °F
Precip. -- in
7:32 AM 5:01 PM
Waxing Crescent, 30% visible
Pressure 29.95 in
Visibility 8.0 miles
Clouds Mostly Cloudy 2400 ft
Mostly Cloudy 3200 ft
Overcast 3900 ft
Dew Point 20 °F
Humidity 30%
Rainfall 0.04 in
Snow Depth Not available.
UV 0 out of 12
Pollen .10 out of 12
Air Quality Not available.
Flu Activity Not available.
METAR KGLY 270035Z AUTO 18008KT 8SM BKN024 BKN032 OVC039 12/09 A2995 RMK AO2

More Conditions Fewer Conditions

Pressure 29.95 in
Visibility 8.0 miles
Clouds Mostly Cloudy 2400 ft
Mostly Cloudy 3200 ft
Overcast 3900 ft
Dew Point 20 °F
Humidity 30%
Rainfall 0.04 in
Snow Depth Not available.
UV 0 out of 12
Pollen .10 out of 12
Air Quality Not available.
Flu Activity Not available.
METAR KGLY 270035Z AUTO 18008KT 8SM BKN024 BKN032 OVC039 12/09 A2995 RMK AO2

More Conditions Fewer Conditions

10-Day Weather Forecast

Almanac

Astronomy

Dec. 26, 2014 Rise Set
Actual Time
Civil Twilight
Nautical Twilight
Astronomical Twilight
Moon
Length of Visible Light
Length of Day
Tomorrow will be .
, % of the Moon is Illuminated

Today's Extremes

State Highs State Lows

Community

WunderPhotos

Upload Photos

1,780,795 photos uploaded!

WunderBlogs® & News

Nearby

Air Quality

  Air Quality AQ Index Pollutant
Not available.

Snow Depth

Station Depth Elevation

Earthquake Activity

City Distance Mag. Time & Date
Minimum magnitude displayed is 2.5.

Coastal Water Temperatures

Place Temperature

Nearby Weather Stations